Time;durP1;ratioP1;P1;durP2;ratioP2;P2;SDS_P1;SDS_P2;PMS_P1;PMS_P2;Temp;Humidity;BMP_temperature;BMP_pressure;BME280_temperature;BME280_humidity;BME280_pressure;Samples;Min_cycle;Max_cycle;Signal;HPM_P1;HPM_P2
2021/06/24 00:00:06;;;;;;;7.60;4.13;;;;;;;20.04;77.96;101853.38;3548139;40;20049;-80
2021/06/24 00:02:33;;;;;;;5.30;2.58;;;;;;;19.90;78.24;101841.56;3542808;40;20937;-80
2021/06/24 00:05:00;;;;;;;6.55;3.28;;;;;;;20.01;78.22;101858.81;3542253;40;20096;-81
2021/06/24 00:07:29;;;;;;;6.72;3.03;;;;;;;20.06;77.49;101862.13;3550592;40;20054;-81
2021/06/24 00:09:57;;;;;;;7.25;3.80;;;;;;;20.04;77.64;101866.63;3545249;40;20054;-80
2021/06/24 00:12:23;;;;;;;6.93;3.70;;;;;;;19.93;77.83;101857.34;3540520;40;20050;-80
2021/06/24 00:14:53;;;;;;;6.93;3.20;;;;;;;19.97;77.74;101852.75;3558261;40;20144;-81
2021/06/24 00:17:19;;;;;;;6.53;3.25;;;;;;;19.96;77.71;101859.84;3553655;40;20334;-81
2021/06/24 00:19:47;;;;;;;7.40;3.13;;;;;;;19.99;77.94;101858.03;3543260;40;20127;-81
2021/06/24 00:22:21;;;;;;;8.05;4.18;;;;;;;20.02;77.06;101872.00;3537127;40;20576;-80
2021/06/24 00:24:48;;;;;;;5.70;2.92;;;;;;;19.97;77.90;101858.06;3538923;40;20061;-81
2021/06/24 00:27:17;;;;;;;7.25;3.17;;;;;;;19.97;77.80;101860.72;3556333;40;20147;-81
2021/06/24 00:29:45;;;;;;;6.47;3.22;;;;;;;19.96;78.21;101862.50;3520960;40;20050;-80
2021/06/24 00:32:19;;;;;;;6.22;2.95;;;;;;;20.00;77.42;101854.44;3541845;40;20041;-81
2021/06/24 00:34:46;;;;;;;10.18;3.92;;;;;;;19.91;78.02;101864.50;3531685;40;25718;-81
2021/06/24 00:37:12;;;;;;;9.32;4.22;;;;;;;19.92;77.88;101860.94;3528391;40;20062;-81
2021/06/24 00:39:40;;;;;;;6.72;3.55;;;;;;;19.90;77.63;101849.53;3544305;40;20311;-81
2021/06/24 00:42:08;;;;;;;7.10;3.20;;;;;;;19.90;78.13;101852.19;3547796;40;20049;-81
2021/06/24 00:44:41;;;;;;;8.27;3.55;;;;;;;19.95;77.60;101849.34;3553390;40;20038;-80
2021/06/24 00:47:08;;;;;;;8.57;3.70;;;;;;;19.88;78.00;101842.59;3546470;40;20043;-80
2021/06/24 00:49:36;;;;;;;8.23;3.70;;;;;;;19.87;77.75;101847.03;3541656;40;20042;-80
2021/06/24 00:52:04;;;;;;;8.30;3.40;;;;;;;19.84;77.66;101847.16;3552379;40;20065;-80
2021/06/24 00:54:58;;;;;;;13.18;3.80;;;;;;;19.94;76.97;101859.06;3560928;40;20462;-80
2021/06/24 00:57:28;;;;;;;9.05;3.47;;;;;;;19.88;77.63;101864.66;3543225;40;20101;-81
2021/06/24 00:59:58;;;;;;;11.25;4.15;;;;;;;19.86;76.45;101858.53;3532375;40;20141;-80
2021/06/24 01:02:25;;;;;;;8.15;3.90;;;;;;;19.83;77.18;101869.28;3536331;40;20868;-80
2021/06/24 01:04:52;;;;;;;8.88;4.45;;;;;;;19.83;76.57;101866.63;3555253;40;20062;-81
2021/06/24 01:07:20;;;;;;;10.90;4.88;;;;;;;19.79;76.47;101864.19;3562251;40;20056;-80
2021/06/24 01:10:13;;;;;;;10.10;4.45;;;;;;;19.75;75.98;101863.44;3554217;40;20049;-80
2021/06/24 01:12:40;;;;;;;10.10;4.50;;;;;;;19.76;75.23;101862.50;3550249;40;20104;-81
2021/06/24 01:15:08;;;;;;;11.05;5.18;;;;;;;19.73;75.22;101870.59;3552152;40;20427;-80
2021/06/24 01:17:36;;;;;;;10.13;4.40;;;;;;;19.69;74.41;101874.31;3550166;40;20494;-80
2021/06/24 01:20:05;;;;;;;12.68;5.70;;;;;;;19.62;74.22;101863.13;3549607;40;20085;-80
2021/06/24 01:22:52;;;;;;;10.93;5.32;;;;;;;19.67;74.09;101876.16;3561717;40;20056;-80
2021/06/24 01:25:21;;;;;;;10.32;5.40;;;;;;;19.53;73.87;101867.91;3538776;40;20113;-80
2021/06/24 01:27:58;;;;;;;14.38;6.22;;;;;;;19.50;73.65;101873.31;3534430;40;20073;-80
2021/06/24 01:30:29;;;;;;;18.83;6.10;;;;;;;19.43;72.73;101878.88;3533073;40;20058;-81
2021/06/24 01:32:57;;;;;;;11.00;5.70;;;;;;;19.33;72.27;101881.97;3533822;40;20101;-80
2021/06/24 01:35:28;;;;;;;10.85;6.40;;;;;;;19.22;72.55;101874.44;3538881;40;20036;-81
2021/06/24 01:38:00;;;;;;;13.90;6.65;;;;;;;19.13;72.15;101875.66;3529869;40;20046;-80
2021/06/24 01:40:29;;;;;;;19.08;7.90;;;;;;;19.07;71.47;101883.00;3545913;40;20054;-80
2021/06/24 01:42:58;;;;;;;16.02;7.32;;;;;;;18.93;71.35;101871.16;3514852;40;20046;-80
2021/06/24 01:45:26;;;;;;;16.45;7.85;;;;;;;18.81;70.96;101868.13;3555492;40;20065;-80
2021/06/24 01:47:53;;;;;;;16.42;8.27;;;;;;;18.66;71.25;101864.25;3543960;40;20049;-80
2021/06/24 01:50:21;;;;;;;14.57;6.75;;;;;;;18.59;72.17;101866.25;3536773;40;21453;-81
2021/06/24 01:52:49;;;;;;;15.77;7.50;;;;;;;18.46;72.42;101859.72;3557263;40;20066;-80
2021/06/24 01:55:31;;;;;;;14.13;7.10;;;;;;;18.48;72.21;101880.81;3563192;40;20026;-81
2021/06/24 01:58:13;;;;;;;14.18;6.65;;;;;;;18.42;72.47;101876.59;3533772;40;20074;-80
2021/06/24 02:01:05;;;;;;;16.60;7.78;;;;;;;18.27;72.49;101856.88;3506922;40;20068;-80
2021/06/24 02:03:40;;;;;;;17.27;7.30;;;;;;;18.21;72.26;101854.44;3524701;40;20058;-80
2021/06/24 02:06:09;;;;;;;15.35;7.80;;;;;;;18.15;72.45;101860.81;3521662;40;20102;-80
2021/06/24 02:08:39;;;;;;;16.58;6.90;;;;;;;18.09;72.60;101868.09;3530100;40;20371;-80
2021/06/24 02:11:25;;;;;;;17.15;7.10;;;;;;;18.07;72.56;101869.94;3545713;40;20547;-80
2021/06/24 02:14:03;;;;;;;15.40;7.47;;;;;;;18.00;72.67;101857.88;3508564;40;20043;-80
2021/06/24 02:16:31;;;;;;;17.70;7.43;;;;;;;17.93;72.37;101872.19;3521591;40;20050;-79
2021/06/24 02:18:58;;;;;;;12.82;6.95;;;;;;;17.82;72.44;101862.84;3521189;40;20058;-80
2021/06/24 02:21:48;;;;;;;17.20;7.22;;;;;;;17.85;72.05;101865.41;3534455;40;20168;-80
2021/06/24 02:24:43;;;;;;;16.67;7.93;;;;;;;17.85;72.38;101864.53;3540081;40;20149;-81
2021/06/24 02:27:14;;;;;;;14.60;7.22;;;;;;;17.73;72.38;101865.81;3545826;40;20133;-79
2021/06/24 02:30:22;;;;;;;14.10;6.40;;;;;;;17.74;72.17;101872.84;3522685;40;20905;-79
2021/06/24 02:32:56;;;;;;;13.18;6.25;;;;;;;17.67;72.24;101865.97;3483440;40;20990;-80
2021/06/24 02:35:25;;;;;;;13.23;6.70;;;;;;;17.63;71.74;101869.63;3515610;40;20610;-80
2021/06/24 02:38:08;;;;;;;13.10;7.40;;;;;;;17.60;71.55;101869.75;3520406;40;20043;-80
2021/06/24 02:40:37;;;;;;;;;;;;;;;17.59;72.36;101868.03;3513031;40;20046;-80
2021/06/24 02:43:11;;;;;;;17.50;7.97;;;;;;;17.49;71.60;101863.97;3517174;40;20419;-80
2021/06/24 02:45:43;;;;;;;16.55;7.55;;;;;;;17.35;71.13;101860.00;3514579;40;20059;-81
2021/06/24 02:48:27;;;;;;;14.18;7.43;;;;;;;17.34;71.05;101868.84;3502130;40;20042;-80
2021/06/24 02:50:56;;;;;;;19.85;8.32;;;;;;;17.28;71.02;101861.09;3502849;40;21416;-80
2021/06/24 02:53:29;;;;;;;18.05;8.38;;;;;;;17.18;71.16;101851.75;3524766;40;20058;-80
2021/06/24 02:56:07;;;;;;;17.42;8.05;;;;;;;17.18;71.42;101870.22;3488291;40;20045;-80
2021/06/24 02:58:42;;;;;;;18.85;8.18;;;;;;;17.12;71.38;101867.78;3501061;40;20051;-80
2021/06/24 03:01:29;;;;;;;15.00;7.30;;;;;;;16.99;71.82;101866.44;3523957;40;20057;-80
2021/06/24 03:04:22;;;;;;;16.73;8.18;;;;;;;17.01;71.96;101875.16;3525741;40;20074;-80
2021/06/24 03:06:54;;;;;;;15.15;7.82;;;;;;;16.99;71.96;101867.31;3526149;40;20062;-80
2021/06/24 03:09:32;;;;;;;14.48;8.38;;;;;;;16.94;71.70;101863.94;3522927;40;20066;-80
2021/06/24 03:12:01;;;;;;;16.25;8.60;;;;;;;16.88;71.79;101863.25;3510421;40;20047;-79
2021/06/24 03:14:32;;;;;;;18.77;8.95;;;;;;;16.86;71.81;101860.66;3531039;40;20065;-80
2021/06/24 03:17:00;;;;;;;18.42;8.88;;;;;;;16.83;72.20;101859.00;3533063;40;20975;-79
2021/06/24 03:19:27;;;;;;;18.52;10.20;;;;;;;16.79;71.64;101859.13;3508974;40;20048;-80
2021/06/24 03:22:20;;;;;;;19.42;8.75;;;;;;;16.76;72.22;101865.34;3540313;40;20046;-79
2021/06/24 03:24:50;;;;;;;18.45;8.93;;;;;;;16.77;72.17;101866.22;3543506;40;20055;-79
2021/06/24 03:27:20;;;;;;;15.82;8.93;;;;;;;16.70;71.94;101854.97;3527659;40;20064;-79
2021/06/24 03:30:20;;;;;;;17.15;10.02;;;;;;;16.73;72.02;101868.09;3523763;40;20050;-80
2021/06/24 03:32:55;;;;;;;23.25;10.10;;;;;;;16.68;71.82;101859.44;3526234;40;20494;-80
2021/06/24 03:35:22;;;;;;;18.52;10.43;;;;;;;16.61;71.92;101865.78;3520606;40;20148;-79
2021/06/24 03:37:49;;;;;;;18.90;9.90;;;;;;;16.53;72.25;101858.09;3546720;40;20533;-80
2021/06/24 03:40:18;;;;;;;24.73;11.55;;;;;;;16.55;71.61;101863.31;3532446;40;20058;-80
2021/06/24 03:42:51;;;;;;;18.52;10.43;;;;;;;16.49;71.85;101852.97;3530061;40;20051;-80
2021/06/24 03:45:18;;;;;;;21.83;11.05;;;;;;;16.45;71.93;101861.84;3539266;40;20316;-80
2021/06/24 03:47:46;;;;;;;;;;;;;;;16.50;72.06;101874.00;3524682;40;21440;-80
2021/06/24 03:50:15;;;;;;;18.17;10.17;;;;;;;16.44;72.26;101875.94;3534360;40;19926;-79
2021/06/24 03:52:46;;;;;;;17.65;10.02;;;;;;;16.39;72.37;101872.59;3531486;40;20623;-80
2021/06/24 03:55:19;;;;;;;20.20;11.25;;;;;;;16.34;72.29;101870.06;3520748;40;20059;-80
2021/06/24 03:57:58;;;;;;;19.73;11.27;;;;;;;16.26;72.06;101865.00;3514813;40;20582;-80
2021/06/24 04:00:29;;;;;;;23.83;11.73;;;;;;;16.27;71.91;101856.22;3527769;40;20091;-79
2021/06/24 04:03:07;;;;;;;21.80;10.93;;;;;;;16.20;71.89;101857.25;3517457;40;20075;-80
2021/06/24 04:05:47;;;;;;;21.48;11.63;;;;;;;16.14;72.01;101860.06;3528178;40;20042;-80
2021/06/24 04:08:22;;;;;;;20.95;11.73;;;;;;;16.13;72.19;101862.75;3540121;40;20038;-79
2021/06/24 04:11:07;;;;;;;22.58;12.68;;;;;;;16.01;72.11;101853.41;3526359;40;20053;-79
2021/06/24 04:13:39;;;;;;;21.60;9.82;;;;;;;16.01;72.52;101859.53;3531533;40;20646;-79
2021/06/24 04:16:27;;;;;;;21.55;11.68;;;;;;;15.99;72.56;101863.13;3531607;40;20061;-80
2021/06/24 04:18:55;;;;;;;20.45;10.85;;;;;;;15.91;72.31;101854.53;3545703;40;20082;-80
2021/06/24 04:21:28;;;;;;;24.48;12.90;;;;;;;15.92;72.68;101859.81;3529608;40;20534;-79
2021/06/24 04:23:57;;;;;;;23.83;12.10;;;;;;;15.89;72.67;101862.50;3524734;40;20047;-80
2021/06/24 04:26:27;;;;;;;20.55;12.10;;;;;;;15.85;72.83;101854.72;3557010;40;20046;-80
2021/06/24 04:28:55;;;;;;;23.55;11.98;;;;;;;15.78;72.69;101840.84;3540590;40;20078;-79
2021/06/24 04:31:24;;;;;;;24.55;12.10;;;;;;;15.77;72.72;101850.53;3537934;40;20063;-80
2021/06/24 04:33:51;;;;;;;24.45;12.27;;;;;;;15.76;72.89;101851.44;3544157;40;20023;-79
2021/06/24 04:36:29;;;;;;;25.17;12.18;;;;;;;15.77;72.97;101855.78;3543432;40;20064;-80
2021/06/24 04:39:13;;;;;;;26.45;14.02;;;;;;;15.71;72.75;101844.53;3533702;40;20050;-79
2021/06/24 04:41:41;;;;;;;23.92;13.15;;;;;;;15.71;73.18;101852.44;3535440;40;20358;-80
2021/06/24 04:44:12;;;;;;;29.60;14.35;;;;;;;15.74;73.09;101861.13;3542570;40;20053;-80
2021/06/24 04:46:42;;;;;;;25.85;14.45;;;;;;;15.64;72.96;101849.09;3552341;40;20061;-79
2021/06/24 04:49:09;;;;;;;27.77;15.77;;;;;;;15.68;73.08;101856.03;3548843;40;20568;-80
2021/06/24 04:51:46;;;;;;;29.30;15.93;;;;;;;15.70;72.77;101862.09;3537691;40;20053;-79
2021/06/24 04:54:23;;;;;;;38.60;17.05;;;;;;;15.67;72.66;101859.56;3548490;40;20057;-79
2021/06/24 04:56:55;;;;;;;28.58;15.60;;;;;;;15.64;72.73;101864.91;3545512;40;20058;-79
2021/06/24 04:59:44;;;;;;;29.25;15.75;;;;;;;15.61;72.64;101864.94;3538073;40;20057;-80
2021/06/24 05:02:31;;;;;;;31.08;17.50;;;;;;;15.56;72.67;101861.53;3551368;40;20056;-79
2021/06/24 05:05:30;;;;;;;30.58;16.67;;;;;;;15.52;72.56;101865.19;3499195;40;20071;-80
2021/06/24 05:08:05;;;;;;;;;;;;;;;15.64;72.30;101887.72;3527175;40;20476;-80
2021/06/24 05:10:32;;;;;;;29.00;17.17;;;;;;;15.51;72.13;101873.97;3515891;40;20394;-80
2021/06/24 05:13:08;;;;;;;32.57;17.83;;;;;;;15.55;72.39;101881.75;3549667;40;20888;-80
2021/06/24 05:15:43;;;;;;;30.42;16.48;;;;;;;15.56;72.58;101882.59;3521052;40;20061;-79
2021/06/24 05:18:13;;;;;;;30.85;16.35;;;;;;;15.45;72.60;101874.13;3518335;40;20050;-80
2021/06/24 05:20:45;;;;;;;32.83;16.75;;;;;;;15.45;72.64;101879.38;3542904;40;20054;-80
2021/06/24 05:23:15;;;;;;;34.20;18.02;;;;;;;15.50;72.60;101898.56;3541053;40;20774;-79
2021/06/24 05:25:46;;;;;;;28.55;15.18;;;;;;;15.46;72.59;101894.25;3525339;40;20070;-79
2021/06/24 05:28:21;;;;;;;31.77;16.27;;;;;;;15.47;72.61;101894.25;3530453;40;20086;-80
2021/06/24 05:30:52;;;;;;;32.97;18.15;;;;;;;15.43;72.84;101882.06;3525985;40;20426;-79
2021/06/24 05:36:06;;;;;;;32.97;17.83;;;;;;;15.39;72.61;101884.78;3571273;40;20103;-80
2021/06/24 05:38:35;;;;;;;34.35;19.40;;;;;;;15.41;72.87;101885.59;3558088;40;20700;-79
2021/06/24 05:41:03;;;;;;;32.08;16.58;;;;;;;15.29;73.18;101873.63;3559068;40;20623;-79
2021/06/24 05:43:32;;;;;;;34.03;17.05;;;;;;;15.35;73.03;101886.63;3568473;40;20434;-79
2021/06/24 05:46:00;;;;;;;31.65;16.20;;;;;;;15.32;73.08;101868.28;3552839;40;20054;-79
2021/06/24 05:48:32;;;;;;;31.30;17.42;;;;;;;15.25;73.38;101859.66;3562281;40;20050;-79
2021/06/24 05:50:59;;;;;;;32.25;16.90;;;;;;;15.36;73.42;101880.50;3568133;40;20943;-79
2021/06/24 05:53:26;;;;;;;29.48;16.58;;;;;;;15.36;73.35;101872.59;3566755;40;20045;-78
2021/06/24 05:56:00;;;;;;;34.13;17.60;;;;;;;15.41;73.28;101861.91;3562237;40;20045;-79
2021/06/24 05:58:29;;;;;;;35.83;18.48;;;;;;;15.32;73.17;101836.72;3579460;40;20064;-79
2021/06/24 06:00:59;;;;;;;39.85;19.02;;;;;;;15.47;72.90;101861.78;3575560;40;20095;-79
2021/06/24 06:03:28;;;;;;;31.13;17.13;;;;;;;15.46;73.13;101857.41;3561334;40;20804;-79
2021/06/24 06:05:55;;;;;;;29.50;16.65;;;;;;;15.31;73.01;101830.59;3559668;40;20083;-79
2021/06/24 06:08:30;;;;;;;39.83;20.33;;;;;;;15.55;73.05;101867.72;3566430;40;20050;-80
2021/06/24 06:10:59;;;;;;;32.47;17.80;;;;;;;15.49;72.86;101855.56;3546033;40;20054;-79
2021/06/24 06:13:31;;;;;;;32.50;15.93;;;;;;;15.53;72.72;101856.38;3544573;40;20090;-79
2021/06/24 06:16:00;;;;;;;29.58;15.70;;;;;;;15.57;72.73;101852.78;3525578;40;20151;-80
2021/06/24 06:18:30;;;;;;;28.05;15.20;;;;;;;15.58;72.79;101854.50;3557190;40;20058;-79
2021/06/24 06:20:59;;;;;;;31.88;17.40;;;;;;;15.61;72.93;101851.75;3556481;40;20066;-80
2021/06/24 06:23:33;;;;;;;32.35;17.15;;;;;;;15.63;73.12;101839.47;3557010;40;20048;-79
2021/06/24 06:26:05;;;;;;;31.17;17.25;;;;;;;15.73;72.39;101859.41;3553383;40;20049;-80
2021/06/24 06:28:33;;;;;;;31.42;16.73;;;;;;;15.74;71.76;101850.59;3563316;40;20062;-79
2021/06/24 06:31:01;;;;;;;33.72;16.60;;;;;;;15.73;71.80;101843.59;3542394;40;20042;-80
2021/06/24 06:33:29;;;;;;;30.42;14.90;;;;;;;15.75;70.80;101839.16;3572241;40;20057;-80
2021/06/24 06:35:57;;;;;;;27.00;15.05;;;;;;;15.86;70.74;101848.53;3567042;40;20028;-80
2021/06/24 06:38:25;;;;;;;33.40;14.45;;;;;;;15.88;70.13;101852.00;3565636;40;20049;-80
2021/06/24 06:40:52;;;;;;;;;;;;;;;15.97;72.05;101846.50;3562040;40;20143;-79
2021/06/24 06:43:20;;;;;;;27.00;13.70;;;;;;;15.94;69.38;101838.66;3546342;40;19956;-80
2021/06/24 06:45:47;;;;;;;23.85;13.02;;;;;;;15.92;69.37;101827.31;3562022;40;20094;-79
2021/06/24 06:48:15;;;;;;;27.45;13.52;;;;;;;15.96;69.55;101823.69;3571262;40;20044;-79
2021/06/24 06:50:47;;;;;;;26.33;12.65;;;;;;;15.99;70.04;101823.59;3557468;40;20089;-79
2021/06/24 06:53:13;;;;;;;25.10;13.13;;;;;;;16.00;69.08;101820.91;3550785;40;20056;-79
2021/06/24 06:55:42;;;;;;;26.17;13.32;;;;;;;16.08;69.23;101826.00;3572394;40;20039;-79
2021/06/24 06:58:09;;;;;;;23.45;12.57;;;;;;;16.04;69.68;101822.56;3556575;40;20064;-79
2021/06/24 07:01:05;;;;;;;26.20;12.30;;;;;;;16.15;70.03;101826.69;3555678;40;20696;-79
2021/06/24 07:03:34;;;;;;;21.60;11.73;;;;;;;16.11;68.85;101828.53;3565068;40;20065;-79
2021/06/24 07:06:01;;;;;;;24.67;11.90;;;;;;;15.99;69.32;101806.03;3566317;40;20065;-79
2021/06/24 07:08:29;;;;;;;23.13;13.63;;;;;;;16.12;69.16;101818.84;3560144;40;20111;-79
2021/06/24 07:10:56;;;;;;;;;;;;;;;16.22;70.67;101831.75;3558521;40;20810;-79
2021/06/24 07:13:22;;;;;;;19.00;9.80;;;;;;;16.12;68.15;101811.84;3576130;40;20073;-79
2021/06/24 07:15:56;;;;;;;20.65;9.23;;;;;;;16.19;68.70;101820.41;3571578;40;20541;-79
2021/06/24 07:18:26;;;;;;;19.10;9.52;;;;;;;16.20;68.83;101807.19;3564166;40;20052;-79
2021/06/24 07:20:58;;;;;;;18.10;8.70;;;;;;;16.12;69.37;101795.13;3555173;40;20046;-79
2021/06/24 07:23:26;;;;;;;19.77;8.98;;;;;;;16.21;68.42;101806.28;3568087;40;20460;-79
2021/06/24 07:25:53;;;;;;;;;;;;;;;16.39;70.59;101822.50;3576935;40;20052;-79
2021/06/24 07:28:29;;;;;;;17.40;8.73;;;;;;;16.40;69.08;101819.81;3552102;40;19977;-80
2021/06/24 07:31:20;;;;;;;17.15;9.55;;;;;;;16.52;69.61;101818.56;3565546;40;20094;-79
2021/06/24 07:33:47;;;;;;;16.15;8.40;;;;;;;16.48;68.00;101817.81;3564182;40;20050;-79
2021/06/24 07:36:16;;;;;;;21.13;10.00;;;;;;;16.53;68.52;101809.78;3575384;40;20056;-80
2021/06/24 07:38:43;;;;;;;18.05;8.75;;;;;;;16.55;67.92;101805.31;3576397;40;20325;-79
2021/06/24 07:41:10;;;;;;;18.30;9.43;;;;;;;16.64;67.26;101812.94;3575509;40;20412;-80
2021/06/24 07:43:39;;;;;;;16.37;8.13;;;;;;;16.75;69.42;101810.88;3581902;40;20458;-79
2021/06/24 07:46:13;;;;;;;16.13;7.80;;;;;;;16.83;69.09;101808.88;3562784;40;20283;-79
2021/06/24 07:48:42;;;;;;;18.20;8.25;;;;;;;16.92;67.09;101802.44;3558991;40;20037;-79
2021/06/24 07:51:11;;;;;;;17.70;8.80;;;;;;;16.94;66.16;101799.75;3588910;40;21961;-79
2021/06/24 07:53:42;;;;;;;15.18;8.50;;;;;;;17.06;66.24;101808.13;3574328;40;20060;-79
2021/06/24 07:56:10;;;;;;;12.93;7.82;;;;;;;17.09;66.45;101794.00;3580494;40;20084;-79
2021/06/24 07:58:40;;;;;;;15.93;7.05;;;;;;;17.21;67.07;101798.84;3577323;40;20053;-79
2021/06/24 08:01:08;;;;;;;15.98;8.57;;;;;;;17.16;65.78;101784.94;3560384;40;20061;-79
2021/06/24 08:03:36;;;;;;;16.25;8.02;;;;;;;17.30;65.47;101798.56;3573443;40;20068;-79
2021/06/24 08:06:28;;;;;;;13.10;7.45;;;;;;;17.44;67.99;101802.53;3578542;40;20075;-79
2021/06/24 08:08:56;;;;;;;14.60;7.82;;;;;;;17.43;66.56;101803.41;3566280;40;20366;-79
2021/06/24 08:11:24;;;;;;;;;;;;;;;17.54;68.49;101796.03;3575722;40;20061;-79
2021/06/24 08:13:52;;;;;;;12.00;6.47;;;;;;;17.51;66.58;101796.97;3572804;40;19937;-79
2021/06/24 08:16:20;;;;;;;11.18;5.93;;;;;;;17.57;66.64;101790.63;3571981;40;20057;-79
2021/06/24 08:18:50;;;;;;;;;;;;;;;17.78;68.38;101803.09;3574966;40;20050;-79
2021/06/24 08:21:17;;;;;;;16.38;6.88;;;;;;;17.76;64.47;101786.44;3558376;40;19944;-79
2021/06/24 08:23:44;;;;;;;;;;;;;;;17.97;68.14;101794.53;3574350;40;20053;-79
2021/06/24 08:26:14;;;;;;;13.07;6.47;;;;;;;17.96;65.12;101792.81;3571419;40;19986;-79
2021/06/24 08:28:41;;;;;;;12.10;6.57;;;;;;;17.97;63.64;101784.81;3565222;40;20094;-79
2021/06/24 08:31:09;;;;;;;13.48;6.68;;;;;;;18.06;64.72;101787.13;3571780;40;20049;-79
2021/06/24 08:33:36;;;;;;;14.82;6.60;;;;;;;18.11;62.95;101786.97;3569874;40;20061;-79
2021/06/24 08:36:05;;;;;;;12.30;5.57;;;;;;;18.17;63.48;101781.44;3566407;40;20061;-79
2021/06/24 08:38:36;;;;;;;13.75;6.38;;;;;;;18.21;64.67;101777.78;3569763;40;20104;-79
2021/06/24 08:41:15;;;;;;;12.38;7.00;;;;;;;18.34;65.70;101781.66;3580813;40;20052;-79
2021/06/24 08:43:45;;;;;;;11.35;6.25;;;;;;;18.43;64.59;101783.09;3580865;40;20068;-79
2021/06/24 08:46:26;;;;;;;12.32;5.63;;;;;;;18.53;65.02;101788.91;3569497;40;20048;-79
2021/06/24 08:48:55;;;;;;;12.60;5.90;;;;;;;18.53;62.97;101789.78;3577440;40;20048;-79
2021/06/24 08:51:30;;;;;;;9.85;5.30;;;;;;;18.62;64.29;101788.56;3586325;40;20052;-79
2021/06/24 08:54:00;;;;;;;9.57;5.50;;;;;;;18.62;63.08;101783.28;3562929;40;20323;-79
2021/06/24 08:56:29;;;;;;;11.57;5.57;;;;;;;18.67;62.43;101791.88;3565018;40;20071;-79
2021/06/24 08:58:59;;;;;;;14.10;5.60;;;;;;;18.67;62.00;101776.00;3557021;40;20068;-79
2021/06/24 09:01:56;;;;;;;13.75;5.55;;;;;;;18.74;64.25;101777.50;3570837;40;20496;-79
2021/06/24 09:04:30;;;;;;;11.63;6.03;;;;;;;18.76;63.49;101775.69;3560609;40;20695;-79
2021/06/24 09:07:12;;;;;;;11.05;6.10;;;;;;;18.81;64.72;101768.44;3581256;40;20084;-79
2021/06/24 09:09:54;;;;;;;11.75;5.68;;;;;;;18.84;64.25;101763.00;3559948;40;20421;-79
2021/06/24 09:12:23;;;;;;;10.38;5.47;;;;;;;18.90;62.46;101756.59;3584213;40;20066;-79
2021/06/24 09:14:58;;;;;;;10.98;4.90;;;;;;;18.99;62.10;101765.94;3574565;40;20053;-79
2021/06/24 09:17:37;;;;;;;10.25;5.32;;;;;;;19.03;63.19;101756.97;3560023;40;20069;-79
2021/06/24 09:20:24;;;;;;;12.32;5.10;;;;;;;19.13;63.54;101774.19;3577336;40;20892;-79
2021/06/24 09:23:17;;;;;;;10.20;5.28;;;;;;;19.19;63.65;101763.34;3570692;40;20077;-79
2021/06/24 09:26:05;;;;;;;8.40;5.03;;;;;;;19.20;61.70;101759.75;3562765;40;20503;-79
2021/06/24 09:28:47;;;;;;;10.30;4.95;;;;;;;19.28;62.74;101757.66;3577478;40;20540;-79
2021/06/24 09:31:20;;;;;;;9.40;4.55;;;;;;;19.30;61.94;101761.09;3555713;40;20099;-79
2021/06/24 09:33:48;;;;;;;11.73;5.15;;;;;;;19.24;61.74;101745.47;3575490;40;20114;-79
2021/06/24 09:36:40;;;;;;;9.15;5.18;;;;;;;19.48;62.62;101748.00;3554713;40;20135;-79
2021/06/24 09:39:28;;;;;;;8.82;4.50;;;;;;;19.65;62.80;101742.84;3567862;40;20142;-79
2021/06/24 09:42:14;;;;;;;11.60;4.95;;;;;;;19.92;61.89;101743.41;3553864;40;20089;-79
2021/06/24 09:44:47;;;;;;;9.00;4.25;;;;;;;20.14;60.61;101730.06;3561088;40;20063;-79
2021/06/24 09:47:17;;;;;;;7.90;4.18;;;;;;;20.39;60.01;101727.13;3557506;40;20094;-79
2021/06/24 09:50:04;;;;;;;9.43;4.57;;;;;;;20.75;60.55;101737.78;3556017;40;20547;-80
2021/06/24 09:52:33;;;;;;;9.32;4.47;;;;;;;21.01;57.73;101732.97;3559288;40;20080;-80
2021/06/24 09:55:14;;;;;;;8.27;4.68;;;;;;;21.30;58.31;101720.88;3556268;40;20089;-80
2021/06/24 09:57:42;;;;;;;10.27;4.73;;;;;;;21.48;56.07;101730.59;3565306;40;20351;-80
2021/06/24 10:00:33;;;;;;;10.05;4.80;;;;;;;21.85;58.38;101734.84;3561404;40;20792;-80
2021/06/24 10:03:12;;;;;;;8.98;4.50;;;;;;;22.05;57.60;101730.22;3568218;40;20053;-80
2021/06/24 10:05:41;;;;;;;8.68;4.15;;;;;;;22.25;55.18;101732.69;3555725;40;20335;-80
2021/06/24 10:08:11;;;;;;;9.07;4.65;;;;;;;22.45;55.12;101734.22;3546526;40;20069;-80
2021/06/24 10:10:44;;;;;;;7.50;4.32;;;;;;;22.65;55.18;101731.31;3565959;40;20075;-80
2021/06/24 10:13:12;;;;;;;9.73;5.07;;;;;;;22.72;53.29;101731.84;3552649;40;20420;-80
2021/06/24 10:15:40;;;;;;;7.35;4.28;;;;;;;22.77;52.36;101713.78;3566491;40;20111;-80
2021/06/24 10:18:08;;;;;;;7.70;3.78;;;;;;;23.05;53.49;101727.22;3555057;40;20112;-80
2021/06/24 10:20:35;;;;;;;9.55;4.47;;;;;;;23.31;52.22;101725.69;3546636;40;20065;-80
2021/06/24 10:23:20;;;;;;;9.00;4.68;;;;;;;23.77;55.39;101724.72;3561984;40;20054;-80
2021/06/24 10:25:50;;;;;;;8.90;4.50;;;;;;;24.12;53.04;101722.50;3556047;40;20067;-80
2021/06/24 10:28:18;;;;;;;8.95;4.28;;;;;;;24.46;50.33;101726.59;3560113;40;20184;-80
2021/06/24 10:30:48;;;;;;;9.75;5.22;;;;;;;24.89;51.92;101713.09;3557924;40;20045;-79
2021/06/24 10:33:16;;;;;;;9.00;3.97;;;;;;;25.16;50.19;101709.53;3557109;40;20065;-80
2021/06/24 10:35:52;;;;;;;9.48;5.07;;;;;;;25.61;50.82;101725.09;3577756;40;20053;-80
2021/06/24 10:38:22;;;;;;;8.05;4.00;;;;;;;25.80;48.35;101715.78;3556825;40;20061;-80
2021/06/24 10:41:00;;;;;;;7.30;3.47;;;;;;;26.05;49.26;101713.06;3571502;40;20107;-80
2021/06/24 10:43:56;;;;;;;5.53;2.95;;;;;;;26.37;52.35;101709.91;3551554;40;20091;-80
2021/06/24 10:46:26;;;;;;;7.75;3.85;;;;;;;26.44;46.76;101705.81;3565833;40;20056;-80
2021/06/24 10:48:53;;;;;;;7.63;3.72;;;;;;;26.63;46.83;101695.47;3557475;40;20088;-80
2021/06/24 10:51:32;;;;;;;7.30;3.58;;;;;;;26.95;48.79;101681.44;3573118;40;20041;-80
2021/06/24 10:53:59;;;;;;;6.57;3.47;;;;;;;27.04;45.63;101678.06;3562327;40;20138;-80
2021/06/24 10:56:34;;;;;;;5.95;3.22;;;;;;;27.35;47.09;101697.19;3575716;40;20714;-80
2021/06/24 10:59:23;;;;;;;7.85;3.85;;;;;;;27.41;47.64;101697.53;3562603;40;20053;-80
2021/06/24 11:02:15;;;;;;;9.30;3.85;;;;;;;27.41;48.08;101702.06;3572879;40;20061;-80
2021/06/24 11:04:44;;;;;;;9.38;4.38;;;;;;;27.16;44.17;101687.00;3566811;40;20061;-80
2021/06/24 11:07:20;;;;;;;6.93;3.78;;;;;;;27.06;46.35;101696.69;3549118;40;20096;-80
2021/06/24 11:10:25;;;;;;;7.53;3.65;;;;;;;26.85;47.42;101694.69;3573634;40;20060;-80
2021/06/24 11:12:59;;;;;;;7.10;3.75;;;;;;;26.58;46.50;101697.63;3568449;40;20418;-80
2021/06/24 11:15:53;;;;;;;9.82;3.70;;;;;;;26.40;48.10;101704.28;3566714;40;20149;-80
2021/06/24 11:18:44;;;;;;;5.22;3.03;;;;;;;26.21;48.80;101693.25;3569845;40;20138;-81
2021/06/24 11:21:29;;;;;;;6.93;3.47;;;;;;;26.14;48.96;101688.31;3567034;40;20390;-80
2021/06/24 11:23:59;;;;;;;6.07;3.33;;;;;;;26.06;46.87;101695.22;3565063;40;20135;-81
2021/06/24 11:26:26;;;;;;;6.80;3.08;;;;;;;26.02;47.29;101683.88;3568817;40;20057;-80
2021/06/24 11:28:59;;;;;;;7.28;2.90;;;;;;;26.00;47.63;101684.91;3561861;40;20056;-80
2021/06/24 11:31:47;;;;;;;5.47;2.75;;;;;;;25.93;49.02;101679.16;3556172;40;20124;-80
2021/06/24 11:34:39;;;;;;;5.65;2.95;;;;;;;25.79;47.80;101682.81;3562236;40;20086;-80
2021/06/24 11:37:15;;;;;;;9.40;3.42;;;;;;;25.72;48.98;101686.03;3565754;40;20100;-80
2021/06/24 11:39:48;;;;;;;7.00;3.50;;;;;;;25.54;52.23;101678.31;3560632;40;20428;-80
2021/06/24 11:42:28;;;;;;;6.70;3.30;;;;;;;25.32;51.07;101673.63;3563483;40;20420;-80
2021/06/24 11:44:56;;;;;;;6.82;2.88;;;;;;;25.07;51.89;101674.44;3568097;40;20101;-80
2021/06/24 11:47:32;;;;;;;6.90;3.50;;;;;;;24.86;51.44;101681.22;3573148;40;20061;-80
2021/06/24 12:04:19;;;;;;;6.43;3.00;;;;;;;24.18;53.12;101665.22;3568701;40;20107;-80